Time;durP1;ratioP1;P1;durP2;ratioP2;P2;SDS_P1;SDS_P2;PMS_P1;PMS_P2;Temp;Humidity;BMP_temperature;BMP_pressure;BME280_temperature;BME280_humidity;BME280_pressure;Samples;Min_cycle;Max_cycle;Signal;HPM_P1;HPM_P2
2022/09/06 00:01:10;;;;;;;10.52;4.00;;;19.60;99.90;;;;;;5136341;27;20046;-83
2022/09/06 00:03:54;;;;;;;5.35;4.00;;;20.20;99.90;;;;;;5136047;27;20398;-83
2022/09/06 00:06:38;;;;;;;8.43;4.57;;;19.60;99.90;;;;;;5135503;27;20034;-84
2022/09/06 00:09:23;;;;;;;6.03;3.45;;;;;;;;;;5120730;27;20502;-83
2022/09/06 00:12:07;;;;;;;5.03;3.90;;;19.60;99.90;;;;;;5150575;27;20057;-83
2022/09/06 00:14:51;;;;;;;9.93;3.80;;;19.60;99.90;;;;;;5120120;27;20069;-83
2022/09/06 00:17:35;;;;;;;7.95;3.85;;;19.50;99.90;;;;;;5135551;27;20383;-83
2022/09/06 00:20:20;;;;;;;7.80;4.10;;;19.50;99.90;;;;;;5135792;27;20531;-84
2022/09/06 00:23:06;;;;;;;5.40;4.00;;;19.40;99.90;;;;;;5120300;27;20498;-84
2022/09/06 00:25:49;;;;;;;5.57;3.50;;;19.30;99.90;;;;;;5123675;27;20132;-84
2022/09/06 00:28:34;;;;;;;9.35;3.85;;;;;;;;;;5144459;27;20083;-84
2022/09/06 00:31:24;;;;;;;5.50;3.80;;;19.20;99.90;;;;;;5122886;27;20066;-84
2022/09/06 00:34:08;;;;;;;9.88;3.95;;;;;;;;;;5135726;27;20087;-84
2022/09/06 00:36:53;;;;;;;8.07;3.85;;;19.20;99.90;;;;;;5135191;27;20093;-83
2022/09/06 00:39:37;;;;;;;5.85;4.20;;;19.20;99.90;;;;;;5119369;27;20046;-83
2022/09/06 00:42:21;;;;;;;7.63;4.63;;;19.00;99.90;;;;;;5119920;27;20061;-83
2022/09/06 00:45:10;;;;;;;8.68;4.28;;;18.80;99.90;;;;;;5135278;27;20455;-83
2022/09/06 00:47:56;;;;;;;6.55;4.15;;;18.90;99.90;;;;;;5135136;27;20087;-83
2022/09/06 00:50:43;;;;;;;7.75;4.15;;;18.80;99.90;;;;;;5128333;27;20054;-83
2022/09/06 00:53:27;;;;;;;7.72;4.05;;;;;;;;;;5136475;27;20498;-84
2022/09/06 00:56:12;;;;;;;13.32;4.45;;;18.60;99.90;;;;;;5132500;27;20061;-83
2022/09/06 00:58:57;;;;;;;9.57;4.57;;;;;;;;;;5148521;27;20045;-83
2022/09/06 01:01:42;;;;;;;6.03;4.40;;;18.70;99.90;;;;;;5119124;27;20049;-83
2022/09/06 01:04:27;;;;;;;7.28;4.20;;;18.50;99.90;;;;;;5134960;27;20459;-83
2022/09/06 01:07:30;;;;;;;6.68;4.45;;;18.50;99.90;;;;;;5139400;27;20096;-83
2022/09/06 01:10:34;;;;;;;7.97;4.47;;;18.60;99.90;;;;;;5138811;27;20038;-83
2022/09/06 01:13:47;;;;;;;7.65;4.18;;;18.60;99.90;;;;;;5134885;27;20088;-84
2022/09/06 01:17:01;;;;;;;8.57;4.30;;;18.50;99.90;;;;;;5134811;27;20034;-84
2022/09/06 01:19:54;;;;;;;9.25;5.03;;;18.40;99.90;;;;;;5105907;27;20485;-83
2022/09/06 01:22:59;;;;;;;4.95;4.10;;;18.40;99.90;;;;;;5118517;27;20147;-83
2022/09/06 01:25:44;;;;;;;5.65;4.13;;;;;;;;;;5132115;27;20129;-85
2022/09/06 01:28:42;;;;;;;9.43;4.20;;;18.40;99.90;;;;;;5147072;27;20042;-83
2022/09/06 01:31:38;;;;;;;9.00;4.03;;;18.30;99.90;;;;;;5118794;27;20034;-84
2022/09/06 01:34:41;;;;;;;5.95;4.18;;;17.70;99.90;;;;;;5134484;27;20042;-84
2022/09/06 01:37:25;;;;;;;9.65;4.90;;;;;;;;;;5134438;27;20395;-83
2022/09/06 01:40:10;;;;;;;5.47;4.20;;;18.90;99.90;;;;;;5149331;27;20033;-83
2022/09/06 01:42:56;;;;;;;7.90;4.75;;;18.30;99.90;;;;;;5139222;27;20038;-83
2022/09/06 01:45:54;;;;;;;6.35;4.25;;;;;;;;;;5133867;27;20046;-83
2022/09/06 01:48:38;;;;;;;6.70;4.22;;;;;;;;;;5139878;27;20040;-85
2022/09/06 01:51:23;;;;;;;7.57;4.43;;;;;;;;;;5140117;27;20501;-84
2022/09/06 01:54:18;;;;;;;9.63;4.50;;;18.20;99.90;;;;;;5129965;27;20042;-83
2022/09/06 01:57:05;;;;;;;6.03;4.43;;;18.30;99.90;;;;;;5132304;27;20030;-83
2022/09/06 02:00:07;;;;;;;6.85;4.63;;;17.50;99.90;;;;;;5133648;27;20087;-83
2022/09/06 02:03:10;;;;;;;8.95;4.68;;;18.20;99.90;;;;;;5129207;27;20129;-83
2022/09/06 02:06:19;;;;;;;7.43;4.80;;;18.20;99.90;;;;;;5129259;27;20539;-83
2022/09/06 02:09:16;;;;;;;6.63;4.90;;;18.20;99.90;;;;;;5134258;27;20415;-84
2022/09/06 02:12:03;;;;;;;9.57;4.70;;;;;;;;;;5117655;27;20042;-83
2022/09/06 02:15:10;;;;;;;6.80;4.70;;;18.20;99.90;;;;;;5117906;27;20102;-84
2022/09/06 02:18:09;;;;;;;7.25;5.00;;;18.10;99.90;;;;;;5144344;27;20041;-85
2022/09/06 02:20:57;;;;;;;5.82;4.80;;;18.20;99.90;;;;;;5140550;27;20038;-83
2022/09/06 02:23:43;;;;;;;6.93;4.80;;;18.20;99.90;;;;;;5120830;27;20399;-83
2022/09/06 02:26:31;;;;;;;8.18;4.75;;;17.90;99.90;;;;;;5133707;27;20115;-84
2022/09/06 02:29:16;;;;;;;7.28;4.45;;;18.10;99.90;;;;;;5133520;27;20395;-83
2022/09/06 02:32:17;;;;;;;5.72;4.43;;;18.10;99.90;;;;;;5132872;27;20069;-83
2022/09/06 02:35:07;;;;;;;8.18;4.95;;;18.00;99.90;;;;;;5133076;27;20402;-83
2022/09/06 02:37:51;;;;;;;6.40;4.38;;;18.10;99.90;;;;;;5132985;27;20030;-84
2022/09/06 02:40:36;;;;;;;5.80;4.50;;;;;;;;;;5117708;27;20103;-83
2022/09/06 02:43:21;;;;;;;9.43;4.78;;;;;;;;;;5117851;28;20049;-83
2022/09/06 02:46:06;;;;;;;7.15;4.43;;;;;;;;;;5132846;27;20048;-83
2022/09/06 02:48:51;;;;;;;6.78;4.60;;;;;;;;;;5132875;27;20042;-84
2022/09/06 02:51:39;;;;;;;8.63;5.45;;;18.10;99.90;;;;;;5117919;28;20035;-83
2022/09/06 02:54:24;;;;;;;9.70;4.90;;;;;;;;;;5117886;27;20046;-83
2022/09/06 02:57:08;;;;;;;7.32;5.13;;;;;;;;;;5114434;27;20201;-83
2022/09/06 02:59:52;;;;;;;9.80;5.10;;;17.80;99.90;;;;;;5131799;27;20531;-84
2022/09/06 03:02:37;;;;;;;8.50;4.93;;;;;;;;;;5117535;27;20083;-87
2022/09/06 03:05:22;;;;;;;6.18;4.85;;;17.90;99.90;;;;;;5133149;27;20050;-83
2022/09/06 03:08:07;;;;;;;6.50;4.90;;;;;;;;;;5147090;27;20051;-83
2022/09/06 03:10:55;;;;;;;6.47;4.75;;;17.80;99.90;;;;;;5117196;28;20505;-84
2022/09/06 03:13:39;;;;;;;6.10;4.93;;;;;;;;;;5123837;27;20511;-84
2022/09/06 03:16:24;;;;;;;8.93;4.75;;;;;;;;;;5138389;27;20034;-84
2022/09/06 03:19:09;;;;;;;10.57;5.63;;;;;;;;;;5132570;27;20042;-84
2022/09/06 03:21:53;;;;;;;9.48;4.63;;;;;;;;;;5136274;27;20414;-86
2022/09/06 03:24:38;;;;;;;8.45;5.00;;;;;;;;;;5140979;27;20501;-83
2022/09/06 03:27:23;;;;;;;5.90;4.35;;;;;;;;;;5130918;28;20432;-83
2022/09/06 03:30:08;;;;;;;7.95;5.00;;;16.60;99.90;;;;;;5146988;27;20050;-83
2022/09/06 03:32:52;;;;;;;7.72;5.07;;;;;;;;;;5117427;28;20046;-83
2022/09/06 03:35:37;;;;;;;10.45;5.45;;;;;;;;;;5120728;27;20095;-83
2022/09/06 03:38:22;;;;;;;8.07;5.05;;;17.90;99.90;;;;;;5136820;27;20042;-83
2022/09/06 03:41:06;;;;;;;6.90;5.43;;;;;;;;;;5120934;27;20536;-83
2022/09/06 03:43:51;;;;;;;6.78;4.25;;;;;;;;;;5136442;27;20446;-84
2022/09/06 03:46:36;;;;;;;7.97;4.60;;;;;;;;;;5136764;27;20042;-83
2022/09/06 03:49:20;;;;;;;6.68;5.13;;;;;;;;;;5136761;27;20042;-84
2022/09/06 03:52:05;;;;;;;8.35;4.72;;;;;;;;;;5120414;27;20498;-84
2022/09/06 03:54:49;;;;;;;7.25;5.60;;;;;;;;;;5121048;27;20064;-84
2022/09/06 03:57:34;;;;;;;7.43;5.22;;;;;;;;;;5136349;27;20394;-84
2022/09/06 04:00:18;;;;;;;8.68;5.90;;;;;;;;;;5120293;27;20065;-84
2022/09/06 04:03:02;;;;;;;8.07;4.78;;;18.00;99.90;;;;;;5120424;27;20498;-84
2022/09/06 04:05:47;;;;;;;8.07;5.28;;;;;;;;;;5135987;27;20058;-83
2022/09/06 04:08:32;;;;;;;7.45;4.80;;;17.80;99.90;;;;;;5115936;27;20103;-83
2022/09/06 04:11:16;;;;;;;7.68;5.60;;;;;;;;;;5121737;27;20088;-84
2022/09/06 04:14:01;;;;;;;8.88;6.53;;;;;;;;;;5120173;27;20058;-83
2022/09/06 04:16:46;;;;;;;7.97;5.00;;;;;;;;;;5135634;27;20037;-84
2022/09/06 04:19:30;;;;;;;8.13;5.13;;;17.70;99.90;;;;;;5136084;27;20080;-83
2022/09/06 04:22:14;;;;;;;9.30;5.55;;;;;;;;;;5120041;27;20041;-84
2022/09/06 04:25:00;;;;;;;7.63;5.57;;;;;;;;;;5120082;27;20034;-84
2022/09/06 04:27:44;;;;;;;8.40;5.63;;;;;;;;;;5135818;27;20402;-84
2022/09/06 04:30:29;;;;;;;9.20;5.60;;;;;;;;;;5135884;27;20054;-84
2022/09/06 04:33:13;;;;;;;9.10;5.80;;;17.90;99.90;;;;;;5119822;27;20501;-84
2022/09/06 04:35:59;;;;;;;11.20;5.60;;;17.50;99.90;;;;;;5120114;27;20042;-83
2022/09/06 04:38:44;;;;;;;10.15;5.07;;;17.70;99.90;;;;;;5135604;27;20115;-83
2022/09/06 04:41:28;;;;;;;7.05;5.95;;;;;;;;;;5144258;27;20046;-83
2022/09/06 04:44:13;;;;;;;9.75;6.07;;;;;;;;;;5149543;27;20079;-84
2022/09/06 04:47:11;;;;;;;8.90;6.18;;;;;;;;;;5134653;27;20041;-84
2022/09/06 04:49:56;;;;;;;8.93;5.93;;;;;;;;;;5130091;27;20122;-84
2022/09/06 04:52:40;;;;;;;11.85;6.22;;;17.60;99.90;;;;;;5125959;27;20041;-84
2022/09/06 04:55:25;;;;;;;8.23;6.78;;;;;;;;;;5126519;27;20062;-84
2022/09/06 04:58:09;;;;;;;10.57;6.88;;;;;;;;;;5119375;27;20053;-84
2022/09/06 05:00:53;;;;;;;9.43;6.45;;;;;;;;;;5119681;27;20050;-84
2022/09/06 05:03:38;;;;;;;10.45;6.90;;;;;;;;;;5119685;27;20038;-83
2022/09/06 05:06:24;;;;;;;8.68;6.68;;;;;;;;;;5124593;27;20378;-84
2022/09/06 05:09:09;;;;;;;8.85;6.75;;;;;;;;;;5118965;27;20063;-85
2022/09/06 05:11:53;;;;;;;8.27;6.72;;;;;;;;;;5118788;27;20080;-84
2022/09/06 05:14:38;;;;;;;10.93;7.45;;;;;;;;;;5119526;27;20042;-84
2022/09/06 05:17:22;;;;;;;9.48;6.95;;;;;;;;;;5113885;28;20070;-84
2022/09/06 05:20:07;;;;;;;7.45;6.68;;;;;;;;;;5113765;28;20038;-89
2022/09/06 05:22:55;;;;;;;14.48;7.85;;;;;;;;;;5114574;28;20043;-84
2022/09/06 05:25:40;;;;;;;12.13;7.63;;;;;;;;;;5120168;27;20088;-84
2022/09/06 05:28:24;;;;;;;10.65;7.78;;;;;;;;;;5118174;27;20080;-83
2022/09/06 05:31:10;;;;;;;10.88;7.45;;;;;;;;;;5112593;28;20111;-84
2022/09/06 05:33:56;;;;;;;9.00;7.07;;;;;;;;;;5127129;27;20084;-84
2022/09/06 05:36:40;;;;;;;9.05;7.07;;;;;;;;;;5113953;28;20038;-83
2022/09/06 05:39:25;;;;;;;11.18;7.80;;;;;;;;;;5124707;27;20088;-83
2022/09/06 05:42:10;;;;;;;9.65;7.95;;;;;;;;;;5113216;28;20039;-88
2022/09/06 05:44:54;;;;;;;12.60;7.65;;;;;;;;;;5113723;28;20059;-84
2022/09/06 05:47:38;;;;;;;9.95;8.07;;;;;;;;;;5113730;28;20039;-83
2022/09/06 05:50:23;;;;;;;9.90;7.65;;;;;;;;;;5118470;27;20041;-84
2022/09/06 05:53:08;;;;;;;11.45;8.80;;;;;;;;;;5117916;27;20053;-84
2022/09/06 05:55:52;;;;;;;10.40;7.30;;;;;;;;;;5112774;28;20510;-84
2022/09/06 05:58:37;;;;;;;11.48;7.97;;;;;;;;;;5111998;28;20388;-83
2022/09/06 06:01:22;;;;;;;8.63;7.72;;;;;;;;;;5111712;28;20046;-85
2022/09/06 06:04:07;;;;;;;8.77;7.43;;;;;;;;;;5127971;27;20037;-83
2022/09/06 06:06:51;;;;;;;12.05;8.07;;;;;;;;;;5116699;27;20080;-85
2022/09/06 06:09:36;;;;;;;11.27;7.47;;;;;;;;;;5111591;28;20462;-84
2022/09/06 06:12:21;;;;;;;9.55;7.47;;;;;;;;;;5112795;28;20046;-84
2022/09/06 06:15:05;;;;;;;8.80;7.50;;;;;;;;;;5126510;27;20548;-85
2022/09/06 06:17:50;;;;;;;12.00;7.85;;;;;;;;;;5113229;28;20470;-84
2022/09/06 06:20:35;;;;;;;11.00;7.78;;;;;;;;;;5112732;28;20069;-84
2022/09/06 06:23:19;;;;;;;11.65;8.00;;;;;;;;;;5111613;27;20046;-85
2022/09/06 06:26:06;;;;;;;13.30;8.20;;;;;;;;;;5111920;28;20083;-84
2022/09/06 06:28:52;;;;;;;10.07;7.30;;;;;;;;;;5112943;28;20074;-84
2022/09/06 06:31:37;;;;;;;10.20;8.32;;;;;;;;;;5111667;28;20043;-85
2022/09/06 06:34:22;;;;;;;10.20;8.43;;;;;;;;;;5121206;27;20042;-84
2022/09/06 06:37:06;;;;;;;14.55;8.45;;;;;;;;;;5114922;28;20039;-85
2022/09/06 06:39:51;;;;;;;9.90;8.57;;;;;;;;;;5123977;27;20064;-84
2022/09/06 06:42:35;;;;;;;9.70;8.68;;;;;;;;;;5103525;27;20043;-84
2022/09/06 06:45:20;;;;;;;12.40;9.25;;;;;;;;;;5116770;28;20391;-85
2022/09/06 06:48:05;;;;;;;11.80;8.40;;;;;;;;;;5111748;28;20081;-85
2022/09/06 06:50:50;;;;;;;10.68;9.23;;;;;;;;;;5111787;28;20043;-84
2022/09/06 06:53:34;;;;;;;10.75;8.52;;;;;;;;;;5097071;28;20050;-85
2022/09/06 06:56:25;;;;;;;10.88;9.35;;;18.00;99.90;;;;;;5111453;28;20093;-86
2022/09/06 06:59:09;;;;;;;13.35;9.25;;;;;;;;;;5111656;28;20449;-84
2022/09/06 07:01:54;;;;;;;12.35;9.02;;;;;;;;;;5112836;28;20085;-84
2022/09/06 07:04:38;;;;;;;10.98;9.52;;;;;;;;;;5111091;28;20124;-84
2022/09/06 07:07:23;;;;;;;12.32;9.43;;;;;;;;;;5121706;27;20398;-84
2022/09/06 07:10:08;;;;;;;11.77;9.68;;;;;;;;;;5108286;27;20046;-84
2022/09/06 07:12:53;;;;;;;11.52;10.05;;;;;;;;;;5121743;27;20030;-85
2022/09/06 07:15:37;;;;;;;13.88;9.65;;;;;;;;;;5136851;27;20387;-84
2022/09/06 07:18:22;;;;;;;14.98;9.77;;;;;;;;;;5136584;27;20069;-84
2022/09/06 07:21:06;;;;;;;11.45;9.57;;;;;;;;;;5137259;27;20529;-84
2022/09/06 07:23:51;;;;;;;10.15;9.02;;;;;;;;;;5137030;27;20133;-84
2022/09/06 07:26:37;;;;;;;13.32;8.98;;;;;;;;;;5120764;27;20042;-85
2022/09/06 07:29:21;;;;;;;11.52;9.30;;;;;;;;;;5137130;27;20439;-84
2022/09/06 07:32:06;;;;;;;10.50;8.95;;;;;;;;;;5136723;27;20066;-84
2022/09/06 07:34:51;;;;;;;10.38;9.35;;;;;;;;;;5121236;27;20042;-85
2022/09/06 07:37:35;;;;;;;14.40;9.07;;;;;;;;;;5121055;27;20443;-84
2022/09/06 07:40:19;;;;;;;11.55;8.73;;;;;;;;;;5136551;27;20045;-85
2022/09/06 07:43:04;;;;;;;12.15;9.23;;;;;;;;;;5136586;27;20038;-85
2022/09/06 07:45:48;;;;;;;11.25;9.38;;;;;;;;;;5135210;27;20398;-86
2022/09/06 07:48:35;;;;;;;9.98;8.23;;;;;;;;;;5120639;27;20074;-84
